Time;durP1;ratioP1;P1;durP2;ratioP2;P2;SDS_P1;SDS_P2;PMS_P1;PMS_P2;Temp;Humidity;BMP_temperature;BMP_pressure;BME280_temperature;BME280_humidity;BME280_pressure;Samples;Min_cycle;Max_cycle;Signal;HPM_P1;HPM_P2
2022/02/21 00:01:19;;;;;;;14.98;1.73;;;5.80;99.90;;;;;;5062528;28;20036;-66
2022/02/21 00:03:45;;;;;;;11.45;1.90;;;5.70;99.90;;;;;;5044206;28;20055;-66
2022/02/21 00:06:10;;;;;;;18.50;2.47;;;5.70;99.90;;;;;;5060587;28;20117;-66
2022/02/21 00:08:36;;;;;;;15.50;2.40;;;5.60;99.90;;;;;;5082385;28;20035;-66
2022/02/21 00:11:02;;;;;;;14.23;2.33;;;5.60;99.90;;;;;;5081317;28;20120;-66
2022/02/21 00:13:29;;;;;;;19.58;2.60;;;5.50;99.90;;;;;;5082276;28;20049;-66
2022/02/21 00:15:55;;;;;;;19.48;2.65;;;5.50;99.90;;;;;;5078950;28;20043;-66
2022/02/21 00:18:20;;;;;;;20.08;2.78;;;5.50;99.90;;;;;;5059680;28;20036;-66
2022/02/21 00:20:46;;;;;;;23.80;2.90;;;5.50;99.90;;;;;;5065182;28;20048;-66
2022/02/21 00:23:13;;;;;;;17.27;2.42;;;5.50;99.90;;;;;;5057796;28;20084;-66
2022/02/21 00:25:39;;;;;;;21.40;3.20;;;5.50;99.90;;;;;;5081686;28;20464;-66
2022/02/21 00:28:05;;;;;;;19.35;2.38;;;5.60;99.90;;;;;;5082856;28;20063;-66
2022/02/21 00:30:30;;;;;;;22.88;2.65;;;5.50;99.90;;;;;;5080284;28;20591;-66
2022/02/21 00:32:56;;;;;;;18.23;3.05;;;5.60;99.90;;;;;;5081276;28;20650;-66
2022/02/21 00:35:22;;;;;;;14.98;1.98;;;5.60;99.90;;;;;;5065504;28;20055;-66
2022/02/21 00:37:47;;;;;;;15.70;2.70;;;5.50;99.90;;;;;;5061680;28;20055;-66
2022/02/21 00:40:13;;;;;;;14.82;2.55;;;5.50;99.90;;;;;;5082019;28;20044;-66
2022/02/21 00:42:39;;;;;;;12.50;2.50;;;5.50;99.90;;;;;;5081184;28;20038;-66
2022/02/21 00:45:07;;;;;;;13.23;2.17;;;5.50;99.90;;;;;;5057017;28;20533;-66
2022/02/21 00:47:33;;;;;;;19.13;3.13;;;5.50;99.90;;;;;;5061777;28;20336;-66
2022/02/21 00:49:59;;;;;;;16.33;2.88;;;5.50;99.90;;;;;;5062708;28;20361;-66
2022/02/21 00:52:24;;;;;;;12.20;2.00;;;5.50;99.90;;;;;;5078512;28;20067;-66
2022/02/21 00:54:50;;;;;;;14.25;3.25;;;5.50;99.90;;;;;;5066606;28;20048;-66
2022/02/21 00:57:16;;;;;;;20.20;2.70;;;5.40;99.90;;;;;;5067145;28;20043;-66
2022/02/21 00:59:43;;;;;;;12.95;2.25;;;5.40;99.90;;;;;;5081621;28;20032;-66
2022/02/21 01:02:09;;;;;;;18.70;2.28;;;5.30;99.90;;;;;;5084809;28;20040;-66
2022/02/21 01:04:35;;;;;;;18.27;2.85;;;5.30;99.90;;;;;;5085619;28;20050;-66
2022/02/21 01:07:00;;;;;;;16.63;2.75;;;5.30;99.90;;;;;;5067024;28;20387;-66
2022/02/21 01:09:26;;;;;;;11.32;2.17;;;5.20;99.90;;;;;;5064992;28;20044;-66
2022/02/21 01:11:52;;;;;;;17.85;2.78;;;5.30;99.90;;;;;;5065624;28;20051;-66
2022/02/21 01:14:18;;;;;;;12.48;2.30;;;5.30;99.90;;;;;;5085434;28;20127;-66
2022/02/21 01:16:43;;;;;;;18.88;2.97;;;5.20;99.90;;;;;;5082033;28;20173;-66
2022/02/21 01:19:09;;;;;;;17.05;3.05;;;5.30;99.90;;;;;;5086673;28;20040;-66
2022/02/21 01:21:35;;;;;;;19.67;3.10;;;5.30;99.90;;;;;;5083526;28;20042;-66
2022/02/21 01:24:01;;;;;;;16.65;3.03;;;5.20;99.90;;;;;;5084737;28;20120;-66
2022/02/21 01:26:27;;;;;;;18.20;2.85;;;5.30;99.90;;;;;;5069747;28;20496;-66
2022/02/21 01:28:53;;;;;;;18.80;2.70;;;5.30;99.90;;;;;;5079904;28;20046;-66
2022/02/21 01:31:19;;;;;;;21.98;3.28;;;5.30;99.90;;;;;;5082050;28;20063;-66
2022/02/21 01:33:45;;;;;;;18.58;3.60;;;5.20;99.90;;;;;;5066383;28;20036;-66
2022/02/21 01:36:11;;;;;;;19.77;2.95;;;5.20;99.90;;;;;;5067841;28;20059;-66
2022/02/21 01:38:37;;;;;;;20.40;3.58;;;5.20;99.90;;;;;;5081839;28;20044;-66
2022/02/21 01:41:03;;;;;;;17.92;4.03;;;5.10;99.90;;;;;;5081326;28;20048;-66
2022/02/21 01:43:29;;;;;;;21.00;3.92;;;5.10;99.90;;;;;;5080937;28;20083;-66
2022/02/21 01:45:54;;;;;;;25.80;4.05;;;5.10;99.90;;;;;;5080758;28;20472;-66
2022/02/21 01:48:20;;;;;;;23.40;3.85;;;5.10;99.90;;;;;;5063592;28;20032;-67
2022/02/21 01:50:46;;;;;;;24.63;4.32;;;5.10;99.90;;;;;;5081648;28;20135;-67
2022/02/21 01:53:13;;;;;;;21.88;3.03;;;5.20;99.90;;;;;;5066627;28;20044;-67
2022/02/21 01:55:38;;;;;;;24.80;3.55;;;5.20;99.90;;;;;;5063353;28;20076;-66
2022/02/21 01:58:06;;;;;;;25.48;4.60;;;5.20;99.90;;;;;;5084046;28;20090;-67
2022/02/21 02:00:31;;;;;;;21.10;4.07;;;5.20;99.90;;;;;;5081750;28;20408;-67
2022/02/21 02:02:57;;;;;;;20.27;4.20;;;5.20;99.90;;;;;;5081806;28;20089;-66
2022/02/21 02:05:25;;;;;;;13.60;2.42;;;5.30;99.90;;;;;;5084869;28;20180;-66
2022/02/21 02:07:52;;;;;;;20.45;4.63;;;5.30;99.90;;;;;;5084377;28;20426;-67
2022/02/21 02:10:18;;;;;;;16.95;3.63;;;5.40;99.90;;;;;;5049755;28;20058;-66
2022/02/21 02:12:44;;;;;;;18.83;3.08;;;5.30;99.90;;;;;;5082588;28;20118;-66
2022/02/21 02:15:19;;;;;;;18.50;3.15;;;5.30;99.90;;;;;;5064318;28;20123;-67
2022/02/21 02:17:46;;;;;;;25.65;3.70;;;5.30;99.90;;;;;;5081166;28;20054;-67
2022/02/21 02:20:13;;;;;;;14.30;2.60;;;5.30;99.90;;;;;;5087227;28;20061;-67
2022/02/21 02:22:40;;;;;;;22.40;3.30;;;5.20;99.90;;;;;;5083020;28;20039;-66
2022/02/21 02:25:07;;;;;;;19.08;3.60;;;5.20;99.90;;;;;;5081169;28;20024;-67
2022/02/21 02:27:32;;;;;;;31.25;4.18;;;5.20;99.90;;;;;;5064496;28;20040;-67
2022/02/21 02:29:59;;;;;;;19.67;3.08;;;5.10;99.90;;;;;;5046293;28;20416;-67
2022/02/21 02:32:26;;;;;;;15.25;3.10;;;5.00;99.90;;;;;;5079861;28;20048;-67
2022/02/21 02:34:52;;;;;;;22.10;3.70;;;5.00;99.90;;;;;;5087305;28;20546;-67
2022/02/21 02:37:20;;;;;;;15.32;3.15;;;5.10;99.90;;;;;;5062892;28;20036;-67
2022/02/21 02:39:46;;;;;;;16.17;3.15;;;5.10;99.90;;;;;;5081203;28;20044;-67
2022/02/21 02:42:12;;;;;;;22.20;3.08;;;5.10;99.90;;;;;;5083615;28;20078;-68
2022/02/21 02:44:37;;;;;;;16.48;2.38;;;5.00;99.90;;;;;;5083762;28;20392;-67
2022/02/21 02:47:07;;;;;;;17.20;2.53;;;5.00;99.90;;;;;;5081265;28;20040;-67
2022/02/21 02:49:34;;;;;;;22.10;3.50;;;4.90;99.90;;;;;;5086323;28;20037;-67
2022/02/21 02:52:00;;;;;;;18.35;3.10;;;4.90;99.90;;;;;;5062766;28;20048;-67
2022/02/21 02:54:25;;;;;;;16.73;2.40;;;4.90;99.90;;;;;;5081068;28;20109;-67
2022/02/21 02:56:51;;;;;;;15.65;3.30;;;4.90;99.90;;;;;;5061491;28;20106;-67
2022/02/21 02:59:17;;;;;;;18.20;3.05;;;4.90;99.90;;;;;;5081723;28;20443;-67
2022/02/21 03:01:43;;;;;;;18.25;2.60;;;5.00;99.90;;;;;;5080347;28;20036;-67
2022/02/21 03:04:09;;;;;;;14.25;2.92;;;4.90;99.90;;;;;;5083362;28;20341;-67
2022/02/21 03:06:36;;;;;;;15.75;2.65;;;4.90;99.90;;;;;;5081165;28;20052;-67
2022/02/21 03:09:03;;;;;;;20.67;3.25;;;4.80;99.90;;;;;;5084126;28;20050;-67
2022/02/21 03:11:28;;;;;;;13.98;2.38;;;4.70;99.90;;;;;;5064176;28;20041;-66
2022/02/21 03:13:55;;;;;;;12.93;2.42;;;4.60;99.90;;;;;;5082027;28;20036;-66
2022/02/21 03:16:21;;;;;;;20.00;3.20;;;4.30;99.90;;;;;;5077984;28;20492;-66
2022/02/21 03:18:46;;;;;;;14.30;2.80;;;4.10;99.90;;;;;;5080849;28;20036;-66
2022/02/21 03:21:13;;;;;;;14.82;2.67;;;3.90;99.90;;;;;;5064039;28;20396;-66
2022/02/21 03:23:39;;;;;;;20.08;3.13;;;3.80;99.90;;;;;;5063424;28;20070;-65
2022/02/21 03:26:04;;;;;;;21.52;3.13;;;3.80;99.90;;;;;;5081466;28;20036;-65
2022/02/21 03:28:30;;;;;;;19.83;3.30;;;3.70;99.90;;;;;;5084417;28;20072;-65
2022/02/21 03:30:56;;;;;;;20.27;2.50;;;3.70;99.90;;;;;;5078635;28;20050;-65
2022/02/21 03:33:22;;;;;;;20.98;3.40;;;3.70;99.90;;;;;;5061853;28;20047;-66
2022/02/21 03:35:48;;;;;;;17.80;3.38;;;3.80;99.90;;;;;;5083803;28;20545;-65
2022/02/21 03:38:14;;;;;;;23.63;3.40;;;3.90;99.90;;;;;;5063279;28;20052;-65
2022/02/21 03:40:40;;;;;;;18.67;3.08;;;4.00;99.90;;;;;;5079774;28;20044;-65
2022/02/21 03:43:06;;;;;;;20.40;3.13;;;4.00;99.90;;;;;;5082042;28;20024;-65
2022/02/21 03:45:32;;;;;;;18.33;2.92;;;4.10;99.90;;;;;;5083577;28;20037;-66
2022/02/21 03:47:58;;;;;;;16.23;3.30;;;4.20;99.90;;;;;;5061797;28;20040;-66
2022/02/21 03:50:24;;;;;;;16.98;2.88;;;4.20;99.90;;;;;;5083283;28;20081;-65
2022/02/21 03:52:50;;;;;;;16.40;3.10;;;4.20;99.90;;;;;;5077740;28;20044;-66
2022/02/21 03:55:16;;;;;;;14.23;2.75;;;4.20;99.90;;;;;;5057451;28;20047;-66
2022/02/21 03:57:42;;;;;;;20.52;2.95;;;4.20;99.90;;;;;;5078687;28;20110;-66
2022/02/21 04:00:12;;;;;;;17.27;2.95;;;4.30;99.90;;;;;;5059794;28;20036;-66
2022/02/21 04:02:38;;;;;;;18.95;2.70;;;4.30;99.90;;;;;;5075907;28;20047;-66
2022/02/21 04:05:05;;;;;;;11.93;2.78;;;4.30;99.90;;;;;;5085079;28;20337;-66
2022/02/21 04:07:31;;;;;;;14.70;2.40;;;4.30;99.90;;;;;;5081975;28;20032;-66
2022/02/21 04:09:57;;;;;;;21.38;3.58;;;4.30;99.90;;;;;;5080126;28;20040;-66
2022/02/21 04:12:24;;;;;;;15.07;2.85;;;4.40;99.90;;;;;;5082697;28;20047;-66
2022/02/21 04:14:49;;;;;;;17.33;2.83;;;4.30;99.90;;;;;;5080073;28;20457;-67
2022/02/21 04:17:15;;;;;;;18.77;3.28;;;4.30;99.90;;;;;;5079101;28;20068;-66
2022/02/21 04:19:41;;;;;;;17.60;2.75;;;4.10;99.90;;;;;;5081333;28;20055;-66
2022/02/21 04:22:11;;;;;;;19.70;3.22;;;4.10;99.90;;;;;;5062558;28;20123;-66
2022/02/21 04:24:38;;;;;;;17.92;3.17;;;4.00;99.90;;;;;;5060433;28;20139;-66
2022/02/21 04:27:05;;;;;;;17.65;3.17;;;3.90;99.90;;;;;;5082007;28;20059;-66
2022/02/21 04:29:31;;;;;;;14.30;2.70;;;4.00;99.90;;;;;;5085509;28;20251;-66
2022/02/21 04:31:56;;;;;;;14.55;2.25;;;4.00;99.90;;;;;;5080945;28;20473;-67
2022/02/21 04:34:22;;;;;;;19.77;2.92;;;4.00;99.90;;;;;;5068839;28;20485;-66
2022/02/21 04:36:48;;;;;;;19.75;3.42;;;4.10;99.90;;;;;;5068106;28;21421;-66
2022/02/21 04:39:14;;;;;;;19.80;3.10;;;4.10;99.90;;;;;;5084791;28;20122;-66
2022/02/21 04:41:39;;;;;;;13.93;3.30;;;4.20;99.90;;;;;;5066607;28;20064;-66
2022/02/21 04:44:05;;;;;;;17.95;3.20;;;4.20;99.90;;;;;;5089386;28;20044;-66
2022/02/21 04:46:31;;;;;;;14.05;2.67;;;4.20;99.90;;;;;;5063415;28;20046;-66
2022/02/21 04:48:56;;;;;;;17.55;2.80;;;4.20;99.90;;;;;;5067231;28;20063;-66
2022/02/21 04:51:22;;;;;;;15.77;2.42;;;4.20;99.90;;;;;;5084866;28;20193;-66
2022/02/21 04:53:48;;;;;;;16.88;2.97;;;4.20;99.90;;;;;;5085044;28;20023;-66
2022/02/21 04:56:14;;;;;;;16.40;2.97;;;4.20;99.90;;;;;;5082994;28;20468;-67
2022/02/21 04:58:39;;;;;;;13.35;2.75;;;4.20;99.90;;;;;;5084956;28;20032;-66
2022/02/21 05:01:05;;;;;;;17.55;2.70;;;4.30;99.90;;;;;;5082873;28;20448;-66
2022/02/21 05:03:31;;;;;;;17.08;3.55;;;4.30;99.90;;;;;;5085820;28;20136;-67
2022/02/21 05:05:57;;;;;;;11.40;2.55;;;4.40;99.90;;;;;;5084833;28;20033;-66
2022/02/21 05:08:24;;;;;;;11.98;2.20;;;4.40;99.90;;;;;;5082435;28;20484;-66
2022/02/21 05:10:50;;;;;;;13.90;2.03;;;4.40;99.90;;;;;;5085623;28;20031;-67
2022/02/21 05:13:16;;;;;;;12.45;2.35;;;4.40;99.90;;;;;;5068187;28;20042;-67
2022/02/21 05:15:41;;;;;;;19.08;3.30;;;4.40;99.90;;;;;;5082077;28;20098;-67
2022/02/21 05:18:07;;;;;;;17.67;2.85;;;4.50;99.90;;;;;;5063755;28;20039;-67
2022/02/21 05:20:33;;;;;;;16.38;2.15;;;4.40;99.90;;;;;;5087903;28;20450;-67
2022/02/21 05:22:59;;;;;;;20.42;3.08;;;4.50;99.90;;;;;;5081320;28;20043;-68
2022/02/21 05:25:25;;;;;;;13.27;2.13;;;4.50;99.90;;;;;;5084603;28;20036;-67
2022/02/21 05:27:51;;;;;;;16.20;2.88;;;4.50;99.90;;;;;;5082758;28;20059;-67
2022/02/21 05:30:16;;;;;;;17.45;2.33;;;4.60;99.90;;;;;;5083801;28;20040;-67
2022/02/21 05:32:43;;;;;;;12.80;2.55;;;4.60;99.90;;;;;;5080635;28;20258;-67
2022/02/21 05:35:09;;;;;;;16.23;3.10;;;4.50;99.90;;;;;;5085266;28;20436;-67
2022/02/21 05:37:35;;;;;;;11.30;2.78;;;4.60;99.90;;;;;;5064392;28;20497;-67
2022/02/21 05:40:01;;;;;;;17.95;3.15;;;4.60;99.90;;;;;;5084782;28;20080;-67
2022/02/21 05:42:27;;;;;;;16.55;3.35;;;4.60;99.90;;;;;;5085578;28;20055;-67
2022/02/21 05:44:52;;;;;;;15.00;4.38;;;4.60;99.90;;;;;;5081916;28;20032;-67
2022/02/21 05:47:18;;;;;;;14.77;2.25;;;4.60;99.90;;;;;;5082693;28;20052;-67
2022/02/21 05:49:44;;;;;;;16.85;3.28;;;4.70;99.90;;;;;;5086546;28;20095;-67
2022/02/21 05:52:09;;;;;;;14.10;2.90;;;4.60;99.90;;;;;;5062387;28;20408;-67
2022/02/21 05:54:36;;;;;;;15.55;2.42;;;4.60;99.90;;;;;;5080637;28;20032;-67
2022/02/21 05:57:02;;;;;;;17.38;2.55;;;4.60;99.90;;;;;;5083371;28;20045;-67
2022/02/21 05:59:27;;;;;;;14.35;2.85;;;4.60;99.90;;;;;;5052483;28;20063;-67
2022/02/21 06:01:53;;;;;;;18.25;2.50;;;4.60;99.90;;;;;;5063669;28;20040;-67
2022/02/21 06:04:19;;;;;;;15.57;3.00;;;4.60;99.90;;;;;;5067589;28;20457;-67
2022/02/21 06:06:45;;;;;;;20.45;2.63;;;4.60;99.90;;;;;;5077014;28;20045;-67
2022/02/21 06:09:11;;;;;;;12.82;2.65;;;4.70;99.90;;;;;;5065382;28;20076;-67
2022/02/21 06:11:37;;;;;;;19.95;2.67;;;4.70;99.90;;;;;;5081333;28;20445;-67
2022/02/21 06:14:03;;;;;;;16.27;2.53;;;4.70;99.90;;;;;;5080177;28;20124;-67
2022/02/21 06:16:28;;;;;;;18.73;2.85;;;4.70;99.90;;;;;;5056441;28;20044;-67
2022/02/21 06:18:54;;;;;;;16.50;2.53;;;4.70;99.90;;;;;;5027261;28;20093;-67
2022/02/21 06:21:20;;;;;;;15.43;2.58;;;4.70;99.90;;;;;;5061040;28;20055;-68
2022/02/21 06:23:46;;;;;;;18.92;2.70;;;4.70;99.90;;;;;;5081683;28;20039;-67
2022/02/21 06:26:12;;;;;;;15.32;2.72;;;4.70;99.90;;;;;;5085728;28;20337;-68
2022/02/21 06:28:38;;;;;;;17.20;2.47;;;4.80;99.90;;;;;;5061557;28;20548;-67
2022/02/21 06:31:08;;;;;;;15.95;3.38;;;4.70;99.90;;;;;;5066098;28;20128;-67
2022/02/21 06:33:34;;;;;;;13.00;2.42;;;4.70;99.90;;;;;;5082321;28;20442;-67
2022/02/21 06:35:59;;;;;;;14.63;2.17;;;4.70;99.90;;;;;;5064707;28;20040;-68
2022/02/21 06:38:25;;;;;;;18.02;3.13;;;4.70;99.90;;;;;;5066931;28;20044;-68
2022/02/21 06:40:51;;;;;;;18.17;3.65;;;4.80;99.90;;;;;;5086786;28;20655;-67
2022/02/21 06:43:17;;;;;;;17.55;2.70;;;4.80;99.90;;;;;;5077680;28;20044;-68
2022/02/21 06:45:43;;;;;;;17.95;2.58;;;4.80;99.90;;;;;;5078869;28;20040;-68
2022/02/21 06:48:08;;;;;;;12.45;2.35;;;4.80;99.90;;;;;;5079618;28;20435;-68
2022/02/21 06:50:34;;;;;;;17.13;3.47;;;4.70;99.90;;;;;;5080016;28;20076;-68
2022/02/21 06:53:00;;;;;;;13.55;2.47;;;4.90;99.90;;;;;;5082111;28;20067;-68
2022/02/21 06:55:26;;;;;;;17.58;4.40;;;4.80;99.90;;;;;;5088627;28;20514;-68
2022/02/21 06:57:53;;;;;;;20.83;3.72;;;4.80;99.90;;;;;;5057850;28;20044;-68
2022/02/21 07:00:19;;;;;;;17.77;3.60;;;4.90;99.90;;;;;;5068393;28;20138;-68
2022/02/21 07:02:45;;;;;;;18.15;3.28;;;4.80;99.90;;;;;;5080166;28;20055;-68
2022/02/21 07:05:11;;;;;;;17.40;2.88;;;4.80;99.90;;;;;;5056133;28;20120;-68
2022/02/21 07:07:37;;;;;;;19.33;3.55;;;4.80;99.90;;;;;;5057344;28;20509;-67
2022/02/21 07:10:04;;;;;;;22.77;3.55;;;4.80;99.90;;;;;;5082217;28;20099;-67
2022/02/21 07:12:30;;;;;;;23.50;3.47;;;4.90;99.90;;;;;;5046118;28;20051;-67
2022/02/21 07:14:56;;;;;;;15.30;2.65;;;4.90;99.90;;;;;;5065274;28;20055;-68
2022/02/21 07:17:22;;;;;;;19.08;3.55;;;4.90;99.90;;;;;;5081935;28;20084;-68
2022/02/21 07:19:49;;;;;;;20.20;3.65;;;4.90;99.90;;;;;;5079129;28;20048;-68
2022/02/21 07:22:15;;;;;;;24.60;3.20;;;4.90;99.90;;;;;;5050884;28;20032;-67
2022/02/21 07:24:41;;;;;;;20.80;3.20;;;4.90;99.90;;;;;;5077166;28;20049;-67
2022/02/21 07:27:08;;;;;;;18.50;3.25;;;5.00;99.90;;;;;;5059160;28;20322;-68
2022/02/21 07:29:36;;;;;;;20.70;3.63;;;5.00;99.90;;;;;;5068681;28;20044;-68
2022/02/21 07:32:03;;;;;;;16.55;3.22;;;5.00;99.90;;;;;;5058833;28;20032;-68
2022/02/21 07:34:29;;;;;;;20.85;4.63;;;5.00;99.90;;;;;;5059297;28;20415;-68
2022/02/21 07:36:55;;;;;;;17.67;3.33;;;5.10;99.90;;;;;;5042146;28;20052;-68
2022/02/21 07:39:20;;;;;;;22.83;3.40;;;5.10;99.90;;;;;;5077136;28;20036;-68
2022/02/21 07:41:46;;;;;;;22.23;3.70;;;5.10;99.90;;;;;;5058079;28;20052;-68
2022/02/21 07:44:12;;;;;;;17.45;3.30;;;5.10;99.90;;;;;;5082267;28;20400;-68
2022/02/21 07:46:38;;;;;;;18.88;3.10;;;5.20;99.90;;;;;;5046643;28;20477;-68
2022/02/21 07:49:04;;;;;;;23.30;3.72;;;5.20;99.90;;;;;;5080961;28;20418;-68
2022/02/21 07:51:29;;;;;;;15.25;3.72;;;5.10;99.90;;;;;;5081653;28;20033;-68
2022/02/21 07:53:55;;;;;;;16.98;3.25;;;5.20;99.90;;;;;;5080306;28;20036;-68
2022/02/21 07:56:21;;;;;;;21.15;3.30;;;5.10;99.90;;;;;;5077234;28;20028;-69
2022/02/21 07:58:47;;;;;;;18.27;3.78;;;5.20;99.90;;;;;;5055097;28;20062;-68
2022/02/21 08:01:13;;;;;;;20.60;3.13;;;5.20;99.90;;;;;;5060779;28;20445;-68
2022/02/21 08:03:39;;;;;;;20.00;3.78;;;5.20;99.90;;;;;;5076394;28;20048;-68
2022/02/21 08:06:10;;;;;;;18.05;3.10;;;5.30;99.90;;;;;;5078475;28;20040;-68
2022/02/21 08:08:37;;;;;;;18.30;3.22;;;5.30;99.90;;;;;;5063284;28;20407;-68
2022/02/21 08:11:03;;;;;;;15.02;2.80;;;5.30;99.90;;;;;;5057353;28;20500;-68
2022/02/21 08:13:29;;;;;;;21.65;2.95;;;5.30;99.90;;;;;;5061503;28;20059;-68
2022/02/21 08:15:54;;;;;;;19.85;3.65;;;5.30;99.90;;;;;;5059694;28;20788;-68
2022/02/21 08:18:20;;;;;;;14.15;2.95;;;5.30;99.90;;;;;;5058072;28;20047;-68
2022/02/21 08:20:46;;;;;;;18.15;3.08;;;5.30;99.90;;;;;;5077581;28;20831;-68
2022/02/21 08:23:11;;;;;;;17.35;3.33;;;5.30;99.90;;;;;;5078025;28;20029;-68
2022/02/21 08:25:37;;;;;;;19.83;3.45;;;5.30;99.90;;;;;;5081729;28;21142;-68
2022/02/21 08:28:03;;;;;;;17.75;3.58;;;5.30;99.90;;;;;;5080371;28;20123;-67
2022/02/21 08:30:29;;;;;;;19.85;4.00;;;5.20;99.90;;;;;;5046002;28;20058;-67
2022/02/21 08:32:55;;;;;;;14.77;2.88;;;5.20;99.90;;;;;;5079899;28;20040;-67
2022/02/21 08:35:21;;;;;;;20.63;3.03;;;5.10;99.90;;;;;;5082362;28;20032;-67
2022/02/21 08:37:48;;;;;;;17.20;3.60;;;5.10;99.90;;;;;;5061047;28;20104;-67
2022/02/21 08:40:15;;;;;;;14.27;2.83;;;5.00;99.90;;;;;;5078263;28;20463;-67
2022/02/21 08:42:42;;;;;;;18.70;2.60;;;4.90;99.90;;;;;;5077255;28;20048;-67
2022/02/21 08:45:10;;;;;;;13.68;2.85;;;4.80;99.90;;;;;;5079497;28;20063;-65
2022/02/21 08:47:36;;;;;;;16.90;3.30;;;4.70;99.90;;;;;;5079740;28;20415;-65
2022/02/21 08:50:05;;;;;;;16.95;3.20;;;4.60;99.90;;;;;;5078567;28;20512;-65
2022/02/21 08:52:32;;;;;;;14.85;2.65;;;4.50;99.90;;;;;;5079155;28;20044;-64
2022/02/21 08:54:58;;;;;;;16.15;2.50;;;4.40;99.90;;;;;;5082087;28;21559;-64
2022/02/21 08:57:23;;;;;;;17.58;2.95;;;4.30;99.90;;;;;;5079238;28;20488;-64
2022/02/21 08:59:49;;;;;;;9.90;1.67;;;4.20;99.90;;;;;;5077708;28;20033;-65
2022/02/21 09:02:19;;;;;;;9.45;1.90;;;4.10;99.90;;;;;;5076249;28;20036;-64
2022/02/21 09:04:44;;;;;;;10.20;1.73;;;3.90;99.90;;;;;;5076466;28;20091;-64
2022/02/21 09:07:10;;;;;;;9.38;2.13;;;3.90;99.90;;;;;;5076129;28;20359;-65
2022/02/21 09:09:36;;;;;;;9.02;1.83;;;3.80;99.90;;;;;;5080908;28;20059;-64
2022/02/21 09:12:03;;;;;;;5.13;0.80;;;3.70;99.90;;;;;;5059337;28;20036;-64
2022/02/21 09:14:29;;;;;;;7.40;1.15;;;3.70;99.90;;;;;;5080189;28;20090;-64
2022/02/21 09:16:54;;;;;;;6.35;1.08;;;3.50;99.90;;;;;;5084179;28;20071;-64
2022/02/21 09:19:20;;;;;;;4.45;0.90;;;3.40;99.90;;;;;;5082234;28;20062;-64
2022/02/21 09:21:46;;;;;;;8.80;1.25;;;3.30;99.90;;;;;;5082117;28;20051;-64
2022/02/21 09:24:11;;;;;;;5.07;0.88;;;3.10;99.90;;;;;;5084901;28;20501;-64
2022/02/21 09:26:37;;;;;;;6.93;1.05;;;3.00;99.90;;;;;;5082708;28;20040;-64
2022/02/21 09:29:03;;;;;;;4.78;0.82;;;3.00;99.90;;;;;;5082381;28;20259;-64
2022/02/21 09:31:29;;;;;;;7.10;0.70;;;3.00;99.90;;;;;;5084085;28;20115;-63
2022/02/21 09:33:54;;;;;;;6.03;0.80;;;3.00;99.90;;;;;;5065772;28;20051;-64
2022/02/21 09:36:21;;;;;;;4.97;0.95;;;3.00;99.90;;;;;;5083571;28;20032;-64
2022/02/21 09:38:46;;;;;;;6.15;0.77;;;2.90;99.90;;;;;;5082342;28;20109;-63
2022/02/21 09:41:12;;;;;;;10.80;1.38;;;2.80;99.90;;;;;;5086129;28;20060;-64
2022/02/21 09:43:38;;;;;;;5.60;0.88;;;2.70;99.90;;;;;;5081384;28;20140;-63
2022/02/21 09:46:07;;;;;;;5.55;0.80;;;2.70;99.90;;;;;;5082388;28;20114;-64
2022/02/21 09:48:36;;;;;;;7.15;0.80;;;2.60;99.90;;;;;;5082499;28;20568;-63
2022/02/21 09:51:03;;;;;;;6.47;0.98;;;2.60;99.90;;;;;;5062937;28;20056;-64
2022/02/21 09:53:31;;;;;;;8.73;1.00;;;2.60;99.90;;;;;;5060865;28;20048;-64
2022/02/21 09:55:57;;;;;;;8.30;1.40;;;2.70;99.90;;;;;;5083308;28;20048;-64
2022/02/21 09:58:24;;;;;;;6.38;1.15;;;2.70;99.90;;;;;;5085813;28;20467;-64
2022/02/21 10:00:50;;;;;;;8.63;1.35;;;2.70;99.90;;;;;;5079003;28;20060;-64
2022/02/21 10:03:41;;;;;;;5.43;0.98;;;2.70;99.90;;;;;;5085168;28;20040;-63
2022/02/21 10:06:29;;;;;;;4.90;0.70;;;2.80;99.90;;;;;;5076378;28;20048;-64
2022/02/21 10:09:01;;;;;;;5.45;1.02;;;2.70;99.90;;;;;;5081601;28;20059;-64
2022/02/21 10:11:29;;;;;;;4.38;0.57;;;2.80;99.90;;;;;;5061749;28;20516;-64
2022/02/21 10:14:17;;;;;;;4.47;0.77;;;2.70;99.90;;;;;;5082992;28;20050;-64
2022/02/21 10:16:53;;;;;;;4.82;1.00;;;2.80;99.90;;;;;;5079423;28;20089;-64
2022/02/21 10:19:25;;;;;;;6.57;1.48;;;2.70;99.90;;;;;;5080447;28;20521;-64
2022/02/21 10:22:23;;;;;;;6.75;2.70;;;2.70;99.90;;;;;;5063529;28;20109;-64
2022/02/21 10:24:50;;;;;;;5.60;0.95;;;2.70;99.90;;;;;;5082352;28;20036;-64
2022/02/21 10:27:24;;;;;;;4.13;0.93;;;2.70;99.90;;;;;;5081338;28;20512;-64
2022/02/21 10:29:54;;;;;;;2.58;0.70;;;2.70;99.90;;;;;;5083142;28;20041;-64
2022/02/21 10:32:25;;;;;;;4.15;0.90;;;2.70;99.90;;;;;;5082810;28;20442;-64
2022/02/21 10:34:51;;;;;;;4.95;1.00;;;2.50;99.90;;;;;;5079936;28;20356;-64
2022/02/21 10:37:23;;;;;;;4.88;0.60;;;2.50;99.90;;;;;;5065922;28;20062;-64
2022/02/21 10:39:49;;;;;;;4.45;1.10;;;2.50;99.90;;;;;;5085842;28;20123;-64
2022/02/21 10:42:25;;;;;;;2.95;0.68;;;2.40;99.90;;;;;;5080606;28;20062;-64
2022/02/21 10:44:51;;;;;;;2.25;0.57;;;2.50;99.90;;;;;;5068970;28;20037;-64
2022/02/21 10:47:19;;;;;;;2.70;0.43;;;2.50;99.90;;;;;;5083937;28;20064;-64
2022/02/21 10:49:56;;;;;;;3.40;0.80;;;2.40;99.90;;;;;;5083205;28;20416;-63
2022/02/21 10:52:30;;;;;;;3.88;0.40;;;2.40;99.90;;;;;;5061156;28;20468;-64
2022/02/21 10:54:56;;;;;;;;;;;2.30;99.90;;;;;;5060958;28;20071;-63
2022/02/21 10:57:25;;;;;;;4.10;0.80;;;2.20;99.90;;;;;;5081655;28;20467;-64
2022/02/21 10:59:52;;;;;;;3.15;0.80;;;2.20;99.90;;;;;;5085522;28;20051;-63
2022/02/21 11:02:20;;;;;;;3.28;0.60;;;2.20;99.90;;;;;;5076311;28;20050;-64
2022/02/21 11:04:46;;;;;;;4.50;0.90;;;2.30;99.90;;;;;;5074849;28;20040;-64
2022/02/21 11:07:13;;;;;;;4.65;0.57;;;2.40;99.90;;;;;;5065289;28;21116;-64
2022/02/21 11:09:40;;;;;;;8.68;1.45;;;2.50;99.90;;;;;;5066855;28;20056;-64
2022/02/21 11:12:07;;;;;;;7.07;1.05;;;2.60;99.90;;;;;;5081865;28;20776;-64
2022/02/21 11:14:35;;;;;;;10.73;1.40;;;2.80;99.90;;;;;;5083716;28;20056;-64
2022/02/21 11:17:03;;;;;;;7.50;1.38;;;3.00;99.90;;;;;;5060260;28;20353;-64
2022/02/21 11:19:29;;;;;;;9.57;1.75;;;3.10;99.90;;;;;;5082390;28;20085;-64
2022/02/21 11:21:56;;;;;;;10.05;1.65;;;3.20;99.90;;;;;;5063754;28;20040;-64
2022/02/21 11:24:25;;;;;;;11.85;1.88;;;3.30;99.90;;;;;;5083377;28;20032;-64
2022/02/21 11:27:07;;;;;;;10.32;2.10;;;3.40;99.90;;;;;;5059489;28;20046;-64
2022/02/21 11:29:56;;;;;;;15.32;2.03;;;3.60;99.90;;;;;;5075845;28;20049;-64
2022/02/21 11:32:23;;;;;;;11.90;2.17;;;3.70;99.90;;;;;;5076046;28;20063;-64
2022/02/21 11:35:11;;;;;;;13.07;2.33;;;3.80;99.90;;;;;;5079670;28;20058;-64
2022/02/21 11:37:38;;;;;;;16.65;2.38;;;3.90;99.90;;;;;;5078940;28;20040;-64
2022/02/21 11:40:05;;;;;;;16.60;2.40;;;4.00;99.90;;;;;;5082971;28;20048;-64
2022/02/21 11:42:35;;;;;;;16.60;2.75;;;4.20;99.90;;;;;;5081034;28;20559;-64
2022/02/21 11:45:04;;;;;;;19.38;2.70;;;4.30;99.90;;;;;;5078560;28;20050;-64
2022/02/21 11:47:46;;;;;;;20.45;2.83;;;4.40;99.90;;;;;;5076110;28;20040;-64
2022/02/21 11:50:13;;;;;;;16.50;2.80;;;4.50;99.90;;;;;;5079273;28;20037;-64
2022/02/21 11:52:40;;;;;;;22.60;3.33;;;4.50;99.90;;;;;;5079379;28;20549;-64
2022/02/21 11:55:29;;;;;;;20.55;3.30;;;4.60;99.90;;;;;;5081499;28;20043;-64
2022/02/21 11:57:59;;;;;;;23.42;3.60;;;4.80;99.90;;;;;;5052432;28;20408;-64
2022/02/21 12:00:46;;;;;;;16.50;2.47;;;4.80;99.90;;;;;;5077512;28;20048;-64
2022/02/21 12:03:21;;;;;;;29.55;4.25;;;4.90;99.90;;;;;;5075563;28;20040;-64
2022/02/21 12:06:10;;;;;;;32.15;4.10;;;5.00;99.90;;;;;;5080182;28;20074;-64
2022/02/21 12:08:40;;;;;;;28.63;3.70;;;5.10;99.90;;;;;;5065770;28;20076;-64
2022/02/21 12:11:17;;;;;;;22.85;3.90;;;5.20;99.90;;;;;;5084836;28;20108;-63
2022/02/21 12:13:48;;;;;;;26.45;4.68;;;5.30;99.90;;;;;;5079156;28;20503;-63
2022/02/21 12:16:16;;;;;;;34.72;4.35;;;5.40;99.90;;;;;;5062893;28;20047;-64
2022/02/21 12:18:43;;;;;;;42.45;5.38;;;5.50;99.90;;;;;;5080089;28;20062;-64
2022/02/21 12:21:19;;;;;;;28.48;4.38;;;5.60;99.90;;;;;;5065164;28;20036;-64
2022/02/21 12:23:57;;;;;;;31.45;5.50;;;5.70;99.90;;;;;;5075515;28;20119;-64
2022/02/21 12:26:35;;;;;;;36.28;5.57;;;5.80;99.90;;;;;;5079770;28;20071;-64
2022/02/21 12:29:15;;;;;;;34.90;4.97;;;6.00;99.90;;;;;;5079080;28;20047;-64
2022/02/21 12:32:04;;;;;;;33.10;5.45;;;5.90;99.90;;;;;;5079323;28;20036;-64
2022/02/21 12:34:32;;;;;;;39.78;4.78;;;6.00;99.90;;;;;;5063493;28;20040;-64
2022/02/21 12:37:04;;;;;;;41.60;5.40;;;6.10;99.90;;;;;;5081092;28;20047;-64
2022/02/21 12:39:36;;;;;;;33.03;4.75;;;6.20;99.90;;;;;;5078192;28;20505;-64
2022/02/21 12:42:02;;;;;;;33.50;5.35;;;6.30;99.90;;;;;;5080483;28;20068;-65
2022/02/21 12:44:28;;;;;;;30.10;4.40;;;6.40;99.90;;;;;;5065565;28;20044;-65
2022/02/21 12:47:00;;;;;;;31.60;5.00;;;6.60;99.90;;;;;;5076381;28;20036;-65
2022/02/21 12:49:33;;;;;;;32.45;4.50;;;6.80;99.90;;;;;;5086209;28;20097;-65